KGLW/GLW METAR and TAF weather

Enter ICAO airport designator
Station Type Date Time Source
KGLW METAR 2022/05/23 14:15 UTC NOAA

KGLW 231415Z AUTO 05012G15KT 10SM OVC022 14/10 A3018 RMK AO2 T01350103


Station Type Date Time Source
KGLW Decoded METAR 2022/05/23 14:15 UTC NOAA

Glasgow, Glasgow Municipal Airport, KY, United States (KGLW) 37-01-54N 085-57-13W
May 23, 2022 - 10:15 AM EDT / 2022.05.23 1415 UTC
Wind: from the NE (050 degrees) at 14 MPH (12 KT) gusting to 17 MPH (15 KT):0
Visibility: 10 mile(s):0
Sky conditions: overcast
Temperature: 56.3 F (13.5 C)
Dew Point: 50.5 F (10.3 C)
Relative Humidity: 80%
Pressure (altimeter): 30.18 in. Hg (1022 hPa)
ob: KGLW 231415Z AUTO 05012G15KT 10SM OVC022 14/10 A3018 RMK AO2 T01350103
cycle: 14

Station Type Date Time Source
KGLW TAF UTC NOAA

Error!

Example: see airport list